Time;durP1;ratioP1;P1;durP2;ratioP2;P2;SDS_P1;SDS_P2;PMS_P1;PMS_P2;Temp;Humidity;BMP_temperature;BMP_pressure;BME280_temperature;BME280_humidity;BME280_pressure;Samples;Min_cycle;Max_cycle;Signal;HPM_P1;HPM_P2
2023/11/09 00:01:12;;;;;;;4.07;2.90;;;;;;;6.26;72.06;95167.25;5088112;28;20038;-74
2023/11/09 00:03:37;;;;;;;3.42;2.65;;;;;;;6.13;72.09;95150.88;5104535;28;20043;-74
2023/11/09 00:06:03;;;;;;;4.32;2.80;;;;;;;6.17;72.45;95161.81;5090233;28;20036;-74
2023/11/09 00:08:30;;;;;;;3.30;2.78;;;;;;;6.19;73.10;95160.81;5107149;28;20027;-74
2023/11/09 00:10:56;;;;;;;4.55;2.97;;;;;;;6.23;72.01;95151.94;5088167;28;20027;-74
2023/11/09 00:13:22;;;;;;;5.55;3.00;;;;;;;6.04;73.63;95154.84;5093146;28;20031;-74
2023/11/09 00:15:47;;;;;;;3.92;3.05;;;;;;;6.01;73.21;95167.06;5107292;28;20023;-74
2023/11/09 00:18:21;;;;;;;4.78;3.30;;;;;;;6.04;72.61;95156.56;5105974;28;20084;-74
2023/11/09 00:20:48;;;;;;;4.65;3.00;;;;;;;5.97;73.35;95160.44;5089628;28;20490;-74
2023/11/09 00:23:19;;;;;;;4.07;3.17;;;;;;;5.82;73.79;95168.13;5107570;28;20115;-74
2023/11/09 00:25:46;;;;;;;4.38;2.92;;;;;;;5.77;74.83;95164.16;5107715;28;20034;-74
2023/11/09 00:28:13;;;;;;;4.53;3.10;;;;;;;5.81;74.84;95175.94;5088801;28;20179;-74
2023/11/09 00:30:39;;;;;;;3.47;2.80;;;;;;;5.79;74.49;95170.88;5090066;28;20027;-74
2023/11/09 00:33:04;;;;;;;3.63;2.78;;;;;;;5.68;75.70;95160.34;5107085;28;20026;-74
2023/11/09 00:35:30;;;;;;;3.80;2.95;;;;;;;5.66;75.78;95167.34;5089393;28;20020;-74
2023/11/09 00:37:55;;;;;;;3.83;2.88;;;;;;;5.43;74.45;95148.03;5089190;28;20028;-74
2023/11/09 00:40:22;;;;;;;3.75;2.67;;;;;;;5.33;75.38;95163.19;5072785;28;20089;-74
2023/11/09 00:42:47;;;;;;;5.63;3.08;;;;;;;5.35;75.36;95161.38;5104663;28;20030;-74
2023/11/09 00:45:13;;;;;;;7.55;2.92;;;;;;;5.13;76.50;95173.81;5105372;28;20123;-74
2023/11/09 00:47:40;;;;;;;5.38;2.60;;;;;;;5.13;77.14;95174.63;5105746;28;20046;-75
2023/11/09 00:50:05;;;;;;;3.45;2.58;;;;;;;4.95;77.54;95170.50;5089718;28;20039;-74
2023/11/09 00:52:31;;;;;;;5.15;2.60;;;;;;;4.88;77.72;95164.03;5104511;28;20031;-74
2023/11/09 00:54:57;;;;;;;3.00;2.30;;;;;;;5.11;78.12;95175.63;5089234;28;20035;-74
2023/11/09 00:57:25;;;;;;;3.22;2.30;;;;;;;4.99;77.65;95182.28;5106793;28;20020;-74
2023/11/09 00:59:50;;;;;;;3.97;2.40;;;;;;;4.82;77.96;95185.78;5107375;28;20051;-74
2023/11/09 01:02:16;;;;;;;3.75;2.53;;;;;;;4.84;78.17;95191.66;5104610;28;20433;-74
2023/11/09 01:04:42;;;;;;;6.47;2.40;;;;;;;4.83;77.21;95195.16;5104852;28;20039;-74
2023/11/09 01:07:09;;;;;;;4.00;2.17;;;;;;;4.66;77.96;95187.53;5106100;28;20557;-74
2023/11/09 01:09:37;;;;;;;3.47;2.35;;;;;;;4.57;78.96;95194.00;5089786;28;20536;-74
2023/11/09 01:12:03;;;;;;;4.47;2.53;;;;;;;4.53;79.69;95200.22;5087907;28;20027;-74
2023/11/09 01:14:28;;;;;;;3.67;2.40;;;;;;;4.30;79.75;95196.28;5089503;28;20102;-74
2023/11/09 01:16:54;;;;;;;3.00;2.30;;;;;;;4.39;80.17;95180.34;5089168;28;20071;-74
2023/11/09 01:19:19;;;;;;;3.10;2.45;;;;;;;4.43;80.80;95189.59;5106159;28;20035;-74
2023/11/09 01:21:45;;;;;;;3.70;2.65;;;;;;;4.35;80.68;95188.31;5103810;28;20024;-74
2023/11/09 01:24:11;;;;;;;3.65;3.08;;;;;;;4.22;80.96;95193.28;5123080;27;20872;-74
2023/11/09 01:26:36;;;;;;;3.67;2.95;;;;;;;4.46;80.74;95184.28;5108209;28;20024;-74
2023/11/09 01:29:02;;;;;;;3.75;2.85;;;;;;;4.44;79.36;95193.81;5108335;28;20036;-74
2023/11/09 01:31:27;;;;;;;7.25;4.35;;;;;;;4.40;80.39;95200.03;5099542;28;20032;-74
2023/11/09 01:33:53;;;;;;;6.50;4.40;;;;;;;4.33;81.15;95190.16;5071466;28;20035;-74
2023/11/09 01:36:18;;;;;;;6.13;4.22;;;;;;;4.31;80.96;95181.66;5076476;28;20036;-74
2023/11/09 01:38:44;;;;;;;4.82;3.47;;;;;;;4.42;80.07;95199.94;5108795;28;20032;-74
2023/11/09 01:41:09;;;;;;;4.15;3.45;;;;;;;4.28;81.16;95202.41;5108737;28;20023;-74
2023/11/09 01:43:35;;;;;;;4.57;3.83;;;;;;;4.10;81.23;95206.78;5110173;28;20100;-74
2023/11/09 01:46:01;;;;;;;4.32;3.47;;;;;;;3.73;81.89;95172.63;5109797;28;20106;-74
2023/11/09 01:48:26;;;;;;;5.10;3.65;;;;;;;3.98;81.97;95201.34;5109589;28;20114;-74
2023/11/09 01:50:52;;;;;;;3.47;2.97;;;;;;;4.14;81.45;95218.53;5108487;28;20100;-74
2023/11/09 01:53:18;;;;;;;4.35;3.45;;;;;;;3.88;81.80;95207.84;5108410;28;20470;-74
2023/11/09 01:55:44;;;;;;;4.28;3.70;;;;;;;3.99;81.70;95215.03;5109739;28;20024;-74
2023/11/09 01:58:09;;;;;;;3.88;3.20;;;;;;;3.92;81.69;95206.78;5105422;27;20027;-74
2023/11/09 02:00:35;;;;;;;6.53;3.60;;;;;;;4.07;81.02;95212.03;5092697;28;20034;-74
2023/11/09 02:03:00;;;;;;;6.30;3.53;;;;;;;4.34;80.62;95210.63;5092592;28;20028;-74
2023/11/09 02:05:26;;;;;;;5.15;3.38;;;;;;;4.19;81.01;95208.84;5109609;28;20024;-74
2023/11/09 02:07:55;;;;;;;4.28;3.08;;;;;;;4.31;81.02;95218.50;5108291;28;20455;-74
2023/11/09 02:10:21;;;;;;;3.75;3.10;;;;;;;4.28;80.57;95208.38;5111336;28;20470;-74
2023/11/09 02:12:47;;;;;;;5.00;3.60;;;;;;;4.30;80.04;95214.28;5109627;28;20020;-74
2023/11/09 02:15:12;;;;;;;4.75;3.53;;;;;;;4.36;79.64;95207.97;5109805;28;20040;-74
2023/11/09 02:17:37;;;;;;;5.25;3.35;;;;;;;4.20;79.93;95208.75;5092749;28;20040;-74
2023/11/09 02:20:04;;;;;;;4.70;3.67;;;;;;;4.21;80.34;95214.75;5090839;28;20040;-74
2023/11/09 02:22:29;;;;;;;4.78;3.78;;;;;;;4.24;80.25;95219.75;5089116;28;20024;-74
2023/11/09 02:24:55;;;;;;;4.32;3.67;;;;;;;4.03;80.13;95207.06;5072605;28;20387;-74
2023/11/09 02:27:20;;;;;;;4.10;3.22;;;;;;;4.16;79.83;95227.03;5111544;28;20038;-74
2023/11/09 02:29:46;;;;;;;5.30;3.88;;;;;;;3.99;79.50;95195.28;5109265;28;20509;-74
2023/11/09 02:32:11;;;;;;;5.18;4.03;;;;;;;4.02;79.43;95220.84;5075849;28;20463;-71
2023/11/09 02:34:37;;;;;;;5.05;3.50;;;;;;;4.05;79.68;95230.13;5103785;27;20040;-73
2023/11/09 02:37:06;;;;;;;4.68;3.10;;;;;;;4.14;78.48;95236.53;5094064;28;20024;-74
2023/11/09 02:39:33;;;;;;;4.20;2.80;;;;;;;4.20;77.11;95229.34;5094398;28;20027;-74
2023/11/09 02:42:00;;;;;;;3.28;2.67;;;;;;;4.11;77.64;95234.97;5112692;28;20027;-74
2023/11/09 02:44:26;;;;;;;4.03;2.75;;;;;;;4.18;78.47;95240.59;5112094;27;20044;-73
2023/11/09 02:46:51;;;;;;;5.88;2.63;;;;;;;4.13;79.09;95250.31;5116311;27;20034;-73
2023/11/09 02:49:17;;;;;;;3.58;2.78;;;;;;;3.97;78.38;95232.25;5133081;27;20023;-74
2023/11/09 02:51:42;;;;;;;4.72;2.92;;;;;;;4.06;78.22;95242.06;5133319;27;20019;-74
2023/11/09 02:54:08;;;;;;;3.78;2.55;;;;;;;3.87;78.93;95254.19;5113573;27;20396;-74
2023/11/09 02:56:33;;;;;;;6.78;2.70;;;;;;;4.06;78.83;95256.66;5112751;28;20409;-74
2023/11/09 02:58:59;;;;;;;3.30;2.50;;;;;;;3.89;78.90;95255.78;5112624;28;20038;-74
2023/11/09 03:01:24;;;;;;;4.38;3.03;;;;;;;3.67;79.87;95255.16;5112507;28;20394;-74
2023/11/09 03:03:53;;;;;;;4.88;3.65;;;;;;;3.56;79.40;95253.94;5111749;28;20409;-74
2023/11/09 03:06:19;;;;;;;5.35;3.50;;;;;;;3.68;79.23;95256.84;5113618;28;20024;-73
2023/11/09 03:08:46;;;;;;;5.35;3.85;;;;;;;3.46;79.36;95257.03;5146607;27;20413;-73
2023/11/09 03:11:11;;;;;;;7.68;3.40;;;;;;;3.32;80.07;95244.84;5118248;27;20078;-73
2023/11/09 03:13:39;;;;;;;4.45;3.30;;;;;;;3.28;80.73;95256.16;5112366;28;20055;-73
2023/11/09 03:16:09;;;;;;;4.53;3.10;;;;;;;3.35;80.02;95254.97;5113141;27;20493;-74
2023/11/09 03:18:34;;;;;;;4.32;3.10;;;;;;;3.33;80.40;95251.66;5095614;28;20119;-73
2023/11/09 03:21:00;;;;;;;4.50;3.17;;;;;;;3.38;80.28;95249.69;5096227;28;20518;-74
2023/11/09 03:23:26;;;;;;;4.72;3.38;;;;;;;3.38;80.41;95252.25;5078209;28;20503;-74
2023/11/09 03:25:52;;;;;;;5.40;3.50;;;;;;;3.24;80.63;95241.81;5095236;28;20038;-74
2023/11/09 03:28:18;;;;;;;5.53;3.25;;;;;;;3.34;81.22;95255.88;5110566;28;20027;-74
2023/11/09 03:30:43;;;;;;;5.53;3.38;;;;;;;3.31;80.48;95246.56;5112074;28;20034;-73
2023/11/09 03:33:09;;;;;;;4.25;3.45;;;;;;;3.40;80.66;95247.03;5128972;27;20026;-74
2023/11/09 03:35:34;;;;;;;6.78;3.20;;;;;;;3.38;79.92;95243.72;5094968;28;20023;-74
2023/11/09 03:37:59;;;;;;;5.28;3.25;;;;;;;3.50;80.10;95249.09;5109069;28;20023;-73
2023/11/09 03:40:25;;;;;;;4.00;3.38;;;;;;;3.44;80.11;95258.84;5112256;28;20028;-73
2023/11/09 03:42:50;;;;;;;3.80;2.88;;;;;;;3.45;79.16;95253.63;5113078;28;20031;-73
2023/11/09 03:45:16;;;;;;;3.70;2.95;;;;;;;3.36;79.65;95257.47;5111756;28;20096;-73
2023/11/09 03:47:41;;;;;;;4.72;3.50;;;;;;;3.46;79.25;95242.47;5110532;28;20050;-74
2023/11/09 03:50:07;;;;;;;5.38;3.90;;;;;;;3.34;79.54;95258.44;5111173;28;20023;-73
2023/11/09 03:52:33;;;;;;;4.60;3.05;;;;;;;3.19;79.83;95272.84;5111004;28;20489;-73
2023/11/09 03:54:58;;;;;;;3.60;2.63;;;;;;;3.23;79.02;95263.25;5113252;28;20039;-74
2023/11/09 03:57:23;;;;;;;4.30;3.25;;;;;;;3.33;78.66;95256.78;5103822;28;20020;-73
2023/11/09 03:59:49;;;;;;;4.78;3.03;;;;;;;3.11;78.64;95274.94;5123672;27;20024;-73
2023/11/09 04:02:15;;;;;;;7.55;4.95;;;;;;;3.04;78.55;95271.81;5111408;28;20482;-74
2023/11/09 04:04:41;;;;;;;6.90;5.20;;;;;;;2.91;79.64;95270.72;5091003;28;20059;-73
2023/11/09 04:07:06;;;;;;;6.07;4.30;;;;;;;2.91;79.71;95273.28;5093166;28;20047;-73
2023/11/09 04:09:32;;;;;;;6.05;4.50;;;;;;;3.00;79.53;95279.72;5112771;27;20028;-73
2023/11/09 04:11:57;;;;;;;6.00;4.88;;;;;;;2.81;79.79;95275.41;5111082;28;20032;-73
2023/11/09 04:14:22;;;;;;;9.15;4.80;;;;;;;2.86;79.66;95282.91;5093234;28;20097;-73
2023/11/09 04:16:48;;;;;;;5.57;4.22;;;;;;;2.78;79.30;95260.16;5073899;28;20028;-73
2023/11/09 04:19:16;;;;;;;4.82;3.22;;;;;;;2.78;79.57;95270.41;5085252;28;20031;-74
2023/11/09 04:21:41;;;;;;;4.65;3.10;;;;;;;2.59;80.46;95274.72;5090014;28;20036;-74
2023/11/09 04:24:07;;;;;;;4.57;3.30;;;;;;;2.62;80.83;95280.56;5084328;28;20405;-73
2023/11/09 04:26:33;;;;;;;5.75;2.72;;;;;;;2.59;80.67;95265.31;5108242;28;20061;-73
2023/11/09 04:28:59;;;;;;;3.92;3.00;;;;;;;2.55;80.78;95268.88;5108715;28;20235;-73
2023/11/09 04:31:26;;;;;;;5.03;2.70;;;;;;;2.62;81.13;95280.56;5108763;28;20023;-73
2023/11/09 04:33:54;;;;;;;3.60;2.75;;;;;;;2.78;79.68;95285.81;5101932;28;20049;-74
2023/11/09 04:36:23;;;;;;;4.38;3.30;;;;;;;2.68;79.78;95272.59;5093403;28;20055;-73
2023/11/09 04:38:48;;;;;;;5.45;3.60;;;;;;;2.69;79.97;95261.41;5093288;28;20030;-73
2023/11/09 04:41:16;;;;;;;6.85;3.83;;;;;;;2.65;80.03;95280.41;5109351;28;20024;-74
2023/11/09 04:43:42;;;;;;;4.80;3.40;;;;;;;2.76;79.76;95268.81;5110566;27;20420;-74
2023/11/09 04:46:13;;;;;;;5.13;3.45;;;;;;;2.86;79.14;95277.78;5109943;28;20093;-74
2023/11/09 04:48:44;;;;;;;3.72;2.50;;;;;;;2.69;78.08;95270.84;5078095;28;20039;-74
2023/11/09 04:51:26;;;;;;;2.67;2.03;;;;;;;2.75;77.10;95274.88;5089315;28;20040;-74
2023/11/09 04:53:52;;;;;;;3.30;2.50;;;;;;;2.40;79.35;95279.84;5074879;28;20524;-73
2023/11/09 04:56:52;;;;;;;3.90;2.42;;;;;;;2.57;79.98;95282.47;5101203;28;20020;-74
2023/11/09 05:07:30;;;;;;;3.60;2.75;;;;;;;2.46;79.50;95289.81;5110316;28;20507;-73
2023/11/09 05:09:56;;;;;;;3.53;2.65;;;;;;;2.31;80.90;95291.28;5093450;28;20035;-74
2023/11/09 05:12:21;;;;;;;3.97;2.60;;;;;;;2.26;79.89;95271.88;5093275;28;20096;-74
2023/11/09 05:14:47;;;;;;;4.60;2.75;;;;;;;2.27;80.29;95288.94;5089603;28;20040;-74
2023/11/09 05:17:15;;;;;;;3.55;2.55;;;;;;;2.46;80.15;95289.81;5109806;28;20031;-74
2023/11/09 05:19:41;;;;;;;5.50;4.75;;;;;;;2.57;80.83;95292.75;5109916;28;20106;-74
2023/11/09 05:22:09;;;;;;;5.18;3.42;;;;;;;2.57;80.22;95290.19;5126208;27;20119;-74
2023/11/09 05:24:36;;;;;;;3.08;2.33;;;;;;;2.54;80.27;95289.50;5093041;28;20485;-73
2023/11/09 05:27:02;;;;;;;3.90;3.03;;;;;;;2.45;80.74;95294.13;5093113;28;20031;-73
2023/11/09 05:29:29;;;;;;;6.50;4.47;;;;;;;2.54;80.50;95292.06;5093275;28;20028;-73
2023/11/09 05:31:54;;;;;;;5.22;3.22;;;;;;;2.55;80.47;95309.09;5126411;27;20118;-74
2023/11/09 05:34:20;;;;;;;4.25;2.75;;;;;;;2.56;79.60;95303.06;5092802;28;20032;-73
2023/11/09 05:36:45;;;;;;;14.68;7.18;;;;;;;2.42;79.13;95309.66;5109611;28;20023;-73
2023/11/09 05:39:13;;;;;;;7.50;4.30;;;;;;;2.35;79.76;95309.97;5109838;28;20042;-73
2023/11/09 05:41:39;;;;;;;3.28;2.60;;;;;;;2.35;80.44;95315.09;5109908;28;20496;-73
2023/11/09 05:44:06;;;;;;;3.85;2.72;;;;;;;2.47;80.55;95312.00;5104544;28;20488;-73
2023/11/09 05:46:32;;;;;;;3.63;2.65;;;;;;;2.40;80.88;95310.59;5090292;28;20034;-73
2023/11/09 05:48:57;;;;;;;3.70;2.63;;;;;;;2.44;80.42;95307.00;5088910;28;20023;-74
2023/11/09 05:51:23;;;;;;;3.80;2.63;;;;;;;2.41;81.24;95314.81;5072810;28;20032;-74
2023/11/09 05:53:48;;;;;;;3.38;2.45;;;;;;;2.43;81.02;95316.44;5105518;28;20036;-74
2023/11/09 05:56:15;;;;;;;4.47;2.83;;;;;;;2.55;80.90;95315.06;5086762;28;20093;-74
2023/11/09 05:58:41;;;;;;;3.65;2.60;;;;;;;2.54;80.68;95315.97;5070882;28;20065;-74
2023/11/09 06:01:08;;;;;;;3.78;3.13;;;;;;;2.59;80.38;95323.44;5105812;28;20020;-74
2023/11/09 06:03:33;;;;;;;5.43;3.00;;;;;;;2.56;80.64;95326.97;5092319;27;20089;-74
2023/11/09 06:05:59;;;;;;;3.45;2.88;;;;;;;2.63;80.89;95325.00;5109845;27;20047;-74
2023/11/09 06:08:25;;;;;;;3.40;2.58;;;;;;;2.65;79.91;95320.63;5090416;28;20111;-73
2023/11/09 06:10:50;;;;;;;4.13;2.75;;;;;;;2.78;79.69;95326.03;5092993;28;20028;-74
2023/11/09 06:13:16;;;;;;;3.40;2.70;;;;;;;2.71;79.65;95320.34;5108630;27;20030;-73
2023/11/09 06:15:42;;;;;;;3.85;2.67;;;;;;;2.75;80.04;95328.75;5097697;28;20039;-73
2023/11/09 06:18:09;;;;;;;4.13;2.95;;;;;;;2.82;79.76;95328.41;5110362;28;20027;-73
2023/11/09 06:20:37;;;;;;;3.67;2.70;;;;;;;2.86;80.04;95323.97;5078376;28;20039;-73
2023/11/09 06:23:03;;;;;;;3.97;3.08;;;;;;;2.85;79.58;95327.44;5109920;27;20023;-74
2023/11/09 06:25:29;;;;;;;4.35;2.88;;;;;;;2.76;79.86;95318.44;5108531;28;20500;-74
2023/11/09 06:27:54;;;;;;;4.20;2.58;;;;;;;2.96;79.58;95334.69;5076259;28;20614;-74
2023/11/09 06:30:20;;;;;;;14.50;7.70;;;;;;;2.90;79.25;95325.53;5106654;28;20637;-74
2023/11/09 06:32:45;;;;;;;25.67;13.23;;;;;;;2.99;79.29;95329.41;5108589;28;20421;-74
2023/11/09 06:35:13;;;;;;;4.40;3.28;;;;;;;3.18;79.82;95339.69;5108581;28;20243;-74
2023/11/09 06:37:41;;;;;;;8.85;3.92;;;;;;;3.02;80.14;95334.41;5106876;27;20165;-74
2023/11/09 06:40:10;;;;;;;4.10;3.00;;;;;;;3.03;80.55;95341.19;5090713;28;20417;-74
2023/11/09 06:42:37;;;;;;;4.47;2.90;;;;;;;3.03;80.85;95333.47;5108923;28;20088;-74
2023/11/09 06:45:04;;;;;;;9.27;5.35;;;;;;;3.04;81.22;95338.56;5091738;28;20051;-74
2023/11/09 06:47:29;;;;;;;13.27;5.95;;;;;;;3.16;80.94;95338.91;5090845;28;20032;-74
2023/11/09 06:49:55;;;;;;;17.80;7.78;;;;;;;3.28;80.70;95339.16;5088848;28;20489;-74
2023/11/09 06:52:21;;;;;;;9.98;5.13;;;;;;;3.28;80.34;95334.03;5090920;28;20061;-74
2023/11/09 06:54:47;;;;;;;6.47;3.58;;;;;;;3.29;80.57;95335.72;5108870;28;20035;-74
2023/11/09 06:57:13;;;;;;;4.80;3.38;;;;;;;3.36;80.67;95323.41;5106847;28;20482;-74
2023/11/09 06:59:38;;;;;;;5.07;3.30;;;;;;;3.52;80.35;95344.91;5089504;28;20051;-74
2023/11/09 07:02:04;;;;;;;9.50;5.38;;;;;;;3.56;79.99;95343.84;5092023;28;20434;-74
2023/11/09 07:04:30;;;;;;;7.50;4.72;;;;;;;3.71;80.06;95339.75;5107773;28;20127;-74
2023/11/09 07:06:55;;;;;;;5.55;3.70;;;;;;;3.62;80.20;95339.34;5109665;28;20031;-74
2023/11/09 07:09:21;;;;;;;4.65;2.85;;;;;;;3.73;80.36;95326.81;5105672;28;20457;-74
2023/11/09 07:11:48;;;;;;;4.78;2.75;;;;;;;3.72;80.28;95351.69;5108593;28;20409;-74
2023/11/09 07:14:15;;;;;;;5.03;3.20;;;;;;;3.90;80.97;95318.28;5107209;28;20089;-74
2023/11/09 07:16:41;;;;;;;4.82;3.50;;;;;;;4.79;79.41;95342.13;5086326;28;20020;-74
2023/11/09 07:19:06;;;;;;;5.30;4.20;;;;;;;6.35;75.10;95337.94;5103355;27;20117;-74
2023/11/09 07:21:32;;;;;;;4.47;3.63;;;;;;;8.18;68.33;95336.13;5093285;28;20031;-74
2023/11/09 07:24:04;;;;;;;4.82;3.28;;;;;;;9.78;62.25;95333.09;5104701;28;20024;-74
2023/11/09 07:26:30;;;;;;;4.05;3.35;;;;;;;11.24;56.81;95332.69;5090608;28;20486;-73
2023/11/09 07:28:56;;;;;;;5.40;4.00;;;;;;;12.32;53.77;95338.88;5090389;28;20036;-74
2023/11/09 07:31:21;;;;;;;4.90;4.00;;;;;;;13.28;51.16;95332.63;5102900;27;20051;-74
2023/11/09 07:33:49;;;;;;;9.02;4.03;;;;;;;14.02;46.59;95334.91;5105559;28;20402;-74
2023/11/09 07:36:16;;;;;;;6.47;4.07;;;;;;;14.81;46.61;95333.16;5110071;28;20024;-75
2023/11/09 07:38:43;;;;;;;6.20;4.60;;;;;;;15.32;44.88;95327.50;5124491;27;20036;-75
2023/11/09 07:41:09;;;;;;;5.75;4.63;;;;;;;14.15;44.60;95323.38;5110121;28;20625;-75
2023/11/09 07:43:34;;;;;;;6.88;5.47;;;;;;;13.14;46.49;95330.34;5110528;28;20115;-75
2023/11/09 07:46:01;;;;;;;8.00;5.57;;;;;;;12.53;48.15;95321.47;5106746;28;20478;-75
2023/11/09 07:48:27;;;;;;;6.28;5.68;;;;;;;11.76;48.57;95320.81;5091420;28;20485;-75
2023/11/09 07:50:52;;;;;;;7.55;6.18;;;;;;;11.34;50.77;95331.03;5092272;28;20031;-75
2023/11/09 07:53:18;;;;;;;6.10;5.30;;;;;;;10.64;53.36;95322.47;5109446;28;20024;-75
2023/11/09 07:55:44;;;;;;;8.50;6.05;;;;;;;10.70;56.73;95332.41;5091366;28;20024;-75
2023/11/09 07:58:09;;;;;;;5.97;5.25;;;;;;;10.43;56.90;95327.50;5109546;28;20102;-75
2023/11/09 08:00:35;;;;;;;7.07;5.93;;;;;;;9.35;56.16;95326.56;5075489;28;20498;-75
2023/11/09 08:03:01;;;;;;;7.18;5.82;;;;;;;9.00;58.18;95341.13;5093752;28;20035;-74
2023/11/09 08:05:29;;;;;;;7.13;5.68;;;;;;;8.67;59.76;95329.53;5077580;28;20028;-74
2023/11/09 08:07:54;;;;;;;6.88;5.57;;;;;;;8.45;60.23;95330.94;5110628;27;20054;-74
2023/11/09 08:10:21;;;;;;;6.95;6.18;;;;;;;8.43;59.66;95337.97;5077644;28;20066;-75
2023/11/09 08:12:47;;;;;;;8.38;6.15;;;;;;;8.47;60.11;95343.81;5111310;28;20020;-75
2023/11/09 08:15:13;;;;;;;8.23;6.57;;;;;;;8.29;61.17;95350.97;5094536;28;20036;-75
2023/11/09 08:17:42;;;;;;;11.15;6.10;;;;;;;8.20;61.19;95338.66;5094275;28;20027;-75
2023/11/09 08:20:09;;;;;;;9.45;6.82;;;;;;;7.88;63.48;95330.34;5094908;28;20048;-75
2023/11/09 08:22:37;;;;;;;8.45;6.68;;;;;;;7.43;66.24;95330.56;5077390;28;20024;-75
2023/11/09 08:25:03;;;;;;;11.65;8.20;;;;;;;7.67;64.62;95332.56;5109811;28;20075;-75
2023/11/09 08:27:30;;;;;;;9.45;7.40;;;;;;;7.64;63.16;95325.00;5077063;28;20118;-75
2023/11/09 08:29:57;;;;;;;11.93;6.90;;;;;;;7.68;64.09;95344.56;5111097;28;20185;-75
2023/11/09 08:32:23;;;;;;;10.25;6.50;;;;;;;7.81;62.72;95340.28;5077310;28;20024;-74
2023/11/09 08:34:51;;;;;;;13.70;8.30;;;;;;;7.81;65.15;95345.44;5094081;28;20085;-74
2023/11/09 08:37:17;;;;;;;11.25;8.20;;;;;;;7.73;63.83;95312.31;5094050;28;20035;-75
2023/11/09 08:39:43;;;;;;;12.43;8.65;;;;;;;8.05;64.51;95323.19;5112226;28;20035;-74
2023/11/09 08:42:09;;;;;;;9.98;7.90;;;;;;;8.13;64.08;95339.97;5112011;28;20034;-75
2023/11/09 08:44:35;;;;;;;10.88;7.82;;;;;;;8.01;62.79;95337.22;5127722;27;20507;-75
2023/11/09 08:47:01;;;;;;;9.32;7.10;;;;;;;8.39;62.57;95340.91;5093756;28;20031;-74
2023/11/09 08:49:27;;;;;;;9.60;7.50;;;;;;;8.44;61.31;95338.81;5110647;28;20034;-75
2023/11/09 08:51:53;;;;;;;9.25;7.25;;;;;;;8.37;61.47;95328.00;5111005;28;20053;-75
2023/11/09 08:54:18;;;;;;;9.23;6.78;;;;;;;8.53;59.02;95327.88;5093665;28;20032;-74
2023/11/09 08:56:44;;;;;;;9.10;6.47;;;;;;;8.46;61.79;95319.66;5093559;28;20035;-74
2023/11/09 08:59:15;;;;;;;11.38;7.88;;;;;;;8.41;61.88;95313.13;5093523;28;20035;-74
2023/11/09 09:01:40;;;;;;;9.05;7.65;;;;;;;8.61;61.72;95309.19;5076588;28;20042;-71
2023/11/09 09:04:06;;;;;;;9.45;7.43;;;;;;;8.92;62.81;95321.75;5093382;28;20032;-71
2023/11/09 09:06:31;;;;;;;12.32;8.43;;;;;;;8.68;62.00;95320.81;5093162;28;20471;-71
2023/11/09 09:08:57;;;;;;;10.18;8.70;;;;;;;8.68;61.89;95323.41;5093240;28;20027;-71
2023/11/09 09:11:22;;;;;;;11.65;9.10;;;;;;;8.93;61.82;95319.97;5111493;28;20031;-71
2023/11/09 09:13:48;;;;;;;11.50;8.15;;;;;;;9.23;61.28;95321.41;5093050;28;20031;-71
2023/11/09 09:16:15;;;;;;;11.02;8.00;;;;;;;8.77;60.61;95296.06;5111522;28;20027;-71
2023/11/09 09:18:41;;;;;;;43.92;22.92;;;;;;;8.82;60.45;95330.25;5093226;28;20028;-71
2023/11/09 09:21:08;;;;;;;11.52;8.85;;;;;;;8.55;60.00;95314.78;5110201;28;20417;-71
2023/11/09 09:23:38;;;;;;;11.55;8.45;;;;;;;9.03;59.63;95325.38;5109972;28;20035;-71
2023/11/09 09:26:04;;;;;;;12.48;8.88;;;;;;;8.78;61.21;95321.88;5111206;28;20035;-71
2023/11/09 09:28:29;;;;;;;11.88;8.88;;;;;;;8.81;62.10;95321.66;5109936;28;20119;-71
2023/11/09 09:30:55;;;;;;;11.23;9.63;;;;;;;8.99;61.85;95308.38;5110104;28;20028;-71
2023/11/09 09:33:20;;;;;;;11.40;9.02;;;;;;;8.85;61.92;95325.69;5110012;28;20220;-71
2023/11/09 09:35:47;;;;;;;11.60;9.10;;;;;;;8.82;62.32;95306.94;5094390;28;20421;-71
2023/11/09 09:38:53;;;;;;;13.00;9.40;;;;;;;8.80;62.00;95325.16;5115504;28;20028;-71
2023/11/09 09:41:19;;;;;;;12.13;9.82;;;;;;;8.93;62.28;95323.41;5115540;28;20038;-71
2023/11/09 09:43:44;;;;;;;11.10;9.38;;;;;;;8.90;61.77;95315.84;5096980;28;20044;-71
2023/11/09 09:46:11;;;;;;;12.98;10.35;;;;;;;9.07;61.00;95306.91;5097156;28;20031;-71
2023/11/09 09:48:37;;;;;;;12.13;9.88;;;;;;;9.23;60.54;95311.88;5080500;28;20122;-71
2023/11/09 09:51:05;;;;;;;10.75;8.70;;;;;;;9.08;59.18;95289.59;5114103;28;20026;-71
2023/11/09 09:53:31;;;;;;;12.00;8.50;;;;;;;9.23;59.88;95304.09;5097271;28;20046;-71
2023/11/09 09:55:56;;;;;;;10.85;9.20;;;;;;;9.25;59.08;95289.25;5097047;28;20020;-71
2023/11/09 09:58:21;;;;;;;12.80;9.07;;;;;;;9.07;59.68;95290.53;5113925;28;20047;-71
2023/11/09 10:00:49;;;;;;;10.43;8.27;;;;;;;9.32;58.85;95269.72;5096954;28;20037;-71
2023/11/09 10:03:16;;;;;;;10.55;7.97;;;;;;;9.40;59.76;95277.78;5096967;28;20489;-71
2023/11/09 10:05:41;;;;;;;11.25;9.50;;;;;;;9.27;60.05;95274.41;5096983;28;20424;-71
2023/11/09 10:08:13;;;;;;;12.63;9.50;;;;;;;9.17;60.06;95268.22;5114922;28;20027;-71
2023/11/09 10:10:47;;;;;;;14.30;10.55;;;;;;;9.24;60.10;95274.63;5113997;28;20508;-71
2023/11/09 10:13:13;;;;;;;12.60;9.90;;;;;;;9.22;59.92;95276.53;5097392;28;20168;-71
2023/11/09 10:15:40;;;;;;;13.60;10.68;;;;;;;9.17;60.14;95276.00;5114977;28;20458;-71
2023/11/09 10:18:05;;;;;;;13.48;10.02;;;;;;;9.07;59.79;95272.38;5096602;28;20457;-71
2023/11/09 10:20:32;;;;;;;12.32;9.52;;;;;;;9.26;59.59;95275.34;5113289;28;20103;-71
2023/11/09 10:22:58;;;;;;;12.82;9.98;;;;;;;9.31;58.98;95246.53;5114666;28;20089;-71
2023/11/09 10:25:27;;;;;;;11.45;9.35;;;;;;;9.43;59.44;95261.19;5096428;28;20027;-71
2023/11/09 10:28:07;;;;;;;12.25;9.50;;;;;;;9.58;59.15;95256.66;5114523;28;20034;-71
2023/11/09 10:30:51;;;;;;;11.95;8.98;;;;;;;9.61;58.10;95253.84;5098140;28;20031;-71
2023/11/09 10:33:17;;;;;;;11.50;8.85;;;;;;;9.97;57.85;95246.94;5113261;28;20054;-71
2023/11/09 10:35:44;;;;;;;10.60;9.10;;;;;;;9.98;58.50;95254.63;5114376;28;20471;-71
2023/11/09 10:38:12;;;;;;;11.52;9.20;;;;;;;9.98;57.91;95251.19;5113253;27;20031;-71
2023/11/09 10:40:42;;;;;;;11.25;9.18;;;;;;;9.95;56.16;95233.25;5113030;28;20024;-71
2023/11/09 10:43:14;;;;;;;10.82;8.50;;;;;;;10.20;56.92;95251.28;5079651;28;20122;-71
2023/11/09 10:45:43;;;;;;;10.23;9.00;;;;;;;10.20;55.39;95246.06;5096514;28;20039;-71
2023/11/09 10:48:17;;;;;;;12.00;9.25;;;;;;;9.97;56.12;95229.63;5095299;28;20020;-71
2023/11/09 10:50:49;;;;;;;10.68;8.10;;;;;;;10.24;54.90;95236.28;5096800;28;20036;-71
2023/11/09 10:53:19;;;;;;;10.18;7.85;;;;;;;10.24;55.20;95242.28;5096887;28;20047;-71
2023/11/09 10:55:44;;;;;;;11.02;7.90;;;;;;;10.27;55.07;95241.28;5112761;28;20040;-71
2023/11/09 10:58:12;;;;;;;9.50;8.18;;;;;;;10.09;55.23;95238.25;5095846;28;20026;-71
2023/11/09 11:00:42;;;;;;;15.38;8.32;;;;;;;10.19;56.42;95244.41;5095845;28;20417;-71
2023/11/09 11:03:25;;;;;;;9.88;7.43;;;;;;;10.26;54.89;95242.19;5112682;28;20383;-71
2023/11/09 11:05:53;;;;;;;11.63;8.20;;;;;;;10.42;56.54;95234.09;5096176;28;20038;-71
2023/11/09 11:08:24;;;;;;;10.40;7.88;;;;;;;10.32;56.99;95243.53;5095436;28;20088;-71
2023/11/09 11:10:51;;;;;;;9.90;7.22;;;;;;;10.55;54.90;95237.41;5096300;28;20071;-71
2023/11/09 11:13:17;;;;;;;9.05;7.38;;;;;;;10.56;53.41;95236.50;5113694;28;20382;-71
2023/11/09 11:16:05;;;;;;;8.70;7.25;;;;;;;10.53;54.04;95236.72;5113736;28;20122;-71
2023/11/09 11:19:06;;;;;;;8.50;6.88;;;;;;;10.58;52.46;95229.38;5113596;28;20026;-71
2023/11/09 11:21:41;;;;;;;10.27;6.50;;;;;;;10.52;53.69;95222.06;5097272;28;20052;-71
2023/11/09 11:24:36;;;;;;;8.45;6.20;;;;;;;10.68;52.92;95230.34;5113501;28;20024;-71
2023/11/09 11:27:16;;;;;;;10.27;6.15;;;;;;;10.60;52.61;95205.91;5112408;28;20485;-71
2023/11/09 11:29:45;;;;;;;10.75;6.43;;;;;;;10.99;51.52;95225.38;5112055;28;20764;-71
2023/11/09 11:32:13;;;;;;;9.70;7.00;;;;;;;11.00;49.95;95219.22;5112319;28;20043;-71
2023/11/09 11:34:46;;;;;;;8.27;6.07;;;;;;;10.81;51.51;95219.00;5111933;28;20043;-71
2023/11/09 11:37:15;;;;;;;8.82;5.78;;;;;;;10.84;52.07;95218.78;5095159;28;20470;-71
2023/11/09 11:39:41;;;;;;;9.50;6.50;;;;;;;10.80;51.50;95206.97;5113151;28;20030;-71
2023/11/09 11:42:19;;;;;;;7.55;5.90;;;;;;;10.91;49.87;95202.56;5095172;28;20405;-71
2023/11/09 11:44:52;;;;;;;9.00;6.13;;;;;;;10.95;50.57;95211.81;5094590;28;20101;-71
2023/11/09 11:47:17;;;;;;;12.40;6.97;;;;;;;10.95;50.36;95201.41;5111985;28;20442;-71